createdAt,value
2019-05-10T00:02:40.826Z,4.87
2019-05-10T00:07:43.548Z,5.37
2019-05-10T00:12:46.275Z,4.97
2019-05-10T00:17:48.956Z,5.22
2019-05-10T00:22:51.755Z,5.78
2019-05-10T00:27:54.499Z,5.78
2019-05-10T00:32:57.258Z,4.60
2019-05-10T00:37:59.984Z,5.60
2019-05-10T00:43:02.954Z,5.80
2019-05-10T00:48:05.686Z,5.53
2019-05-10T00:53:08.432Z,5.75
2019-05-10T00:58:11.240Z,5.60
2019-05-10T01:03:13.911Z,5.78
2019-05-10T01:08:16.566Z,5.65
2019-05-10T01:13:19.227Z,6.33
2019-05-10T01:18:21.916Z,6.17
2019-05-10T01:23:24.629Z,6.53
2019-05-10T01:28:27.371Z,6.42
2019-05-10T01:33:30.044Z,6.08
2019-05-10T01:38:32.696Z,6.53
2019-05-10T01:43:35.364Z,6.15
2019-05-10T01:48:38.092Z,6.87
2019-05-10T01:54:00.164Z,6.42
2019-05-10T01:59:02.818Z,6.55
2019-05-10T02:04:05.479Z,6.50
2019-05-10T02:09:08.206Z,6.67
2019-05-10T02:14:13.769Z,7.05
2019-05-10T02:19:16.437Z,7.37
2019-05-10T02:24:19.108Z,7.97
2019-05-10T02:29:22.098Z,8.65
2019-05-10T02:34:24.866Z,8.53
2019-05-10T02:39:28.003Z,7.75
2019-05-10T02:44:30.726Z,8.80
2019-05-10T02:49:33.387Z,9.45
2019-05-10T02:54:36.123Z,9.68
2019-05-10T02:59:59.702Z,10.23
2019-05-10T03:05:03.411Z,9.95
2019-05-10T03:10:11.328Z,8.70
2019-05-10T03:15:35.208Z,10.80
2019-05-10T03:20:38.439Z,9.78
2019-05-10T03:25:41.314Z,10.53
2019-05-10T03:31:03.591Z,10.05
2019-05-10T03:36:27.168Z,10.45
2019-05-10T03:41:29.884Z,12.10
2019-05-10T03:46:32.561Z,12.55
2019-05-10T03:51:35.301Z,13.35
2019-05-10T03:56:38.034Z,13.48
2019-05-10T04:01:40.712Z,12.82
2019-05-10T04:06:43.451Z,12.50
2019-05-10T04:11:46.112Z,11.97
2019-05-10T04:16:48.843Z,12.28
2019-05-10T04:21:51.565Z,12.63
2019-05-10T04:26:54.238Z,13.32
2019-05-10T04:31:56.903Z,12.98
2019-05-10T04:36:59.655Z,13.40
2019-05-10T04:42:02.390Z,14.33
2019-05-10T04:47:05.117Z,13.22
2019-05-10T04:52:07.936Z,15.32
2019-05-10T04:57:10.588Z,11.80
2019-05-10T05:02:13.329Z,15.88
2019-05-10T05:07:16.052Z,12.55
2019-05-10T05:12:18.713Z,13.95
2019-05-10T05:17:21.378Z,13.05
2019-05-10T05:22:43.419Z,12.07
2019-05-10T05:27:46.154Z,12.43
2019-05-10T05:32:48.826Z,9.90
2019-05-10T05:37:51.500Z,10.32
2019-05-10T05:42:54.227Z,8.40
2019-05-10T05:47:57.253Z,9.53
2019-05-10T05:53:00.109Z,12.13
2019-05-10T05:58:04.715Z,10.00
2019-05-10T06:03:07.220Z,13.20
2019-05-10T06:08:21.459Z,14.63
2019-05-10T06:13:14.735Z,13.35
2019-05-10T06:18:17.466Z,16.20
2019-05-10T06:23:20.148Z,18.57
2019-05-10T06:28:58.234Z,17.25
2019-05-10T06:33:46.930Z,21.97
2019-05-10T06:38:49.708Z,21.62
2019-05-10T06:43:53.177Z,21.07
2019-05-10T06:49:07.145Z,19.90
2019-05-10T06:54:01.276Z,20.55
2019-05-10T06:59:12.776Z,22.80
2019-05-10T07:04:08.447Z,20.77
2019-05-10T07:09:11.437Z,21.05
2019-05-10T07:14:14.107Z,23.42
2019-05-10T07:19:16.817Z,20.80
2019-05-10T07:24:25.306Z,21.57
2019-05-10T07:29:30.190Z,19.85
2019-05-10T07:34:28.251Z,20.62
2019-05-10T07:39:41.644Z,19.62
2019-05-10T07:44:46.500Z,20.17
2019-05-10T07:49:45.942Z,18.62
2019-05-10T07:54:48.710Z,19.20
2019-05-10T07:59:51.548Z,17.17
2019-05-10T08:04:54.381Z,17.90
2019-05-10T08:10:18.625Z,17.60
2019-05-10T08:15:24.793Z,17.48
2019-05-10T08:20:38.087Z,16.37
2019-05-10T08:25:36.347Z,17.77
2019-05-10T08:30:51.732Z,17.73
2019-05-10T08:35:52.386Z,14.20
2019-05-10T08:40:52.690Z,13.58
2019-05-10T08:45:57.844Z,12.35
2019-05-10T08:51:04.057Z,11.25
2019-05-10T08:56:07.783Z,10.55
2019-05-10T09:01:20.597Z,9.93
2019-05-10T09:06:16.664Z,10.72
2019-05-10T09:11:17.891Z,9.50
2019-05-10T09:16:20.546Z,10.68
2019-05-10T09:21:23.208Z,9.85
2019-05-10T09:26:25.962Z,10.88
2019-05-10T09:31:28.722Z,11.12
2019-05-10T09:36:36.031Z,11.22
2019-05-10T09:41:38.242Z,11.20
2019-05-10T09:46:42.148Z,10.93
2019-05-10T09:51:44.555Z,10.03
2019-05-10T09:56:51.992Z,5.62
2019-05-10T10:01:51.666Z,4.00
2019-05-10T10:06:54.386Z,5.42
2019-05-10T10:12:01.678Z,3.20
2019-05-10T10:17:03.164Z,4.78
2019-05-10T10:22:11.040Z,6.33
2019-05-10T10:27:10.425Z,6.92
2019-05-10T10:32:13.170Z,5.97
2019-05-10T10:37:22.127Z,4.75
2019-05-10T10:42:20.548Z,6.15
2019-05-10T10:47:30.419Z,6.22
2019-05-10T10:52:27.866Z,7.20
2019-05-10T10:57:30.626Z,7.25
2019-05-10T11:02:34.267Z,5.87
2019-05-10T11:07:41.039Z,5.87
2019-05-10T11:12:41.512Z,5.90
2019-05-10T11:17:44.190Z,5.58
2019-05-10T11:22:49.706Z,7.80
2019-05-10T11:27:54.025Z,6.70
2019-05-10T11:32:55.682Z,6.50
2019-05-10T11:38:01.044Z,7.25
2019-05-10T11:43:02.839Z,6.08
2019-05-10T11:48:05.652Z,7.25
2019-05-10T11:53:13.372Z,7.03
2019-05-10T11:58:13.472Z,5.80
2019-05-10T12:08:22.319Z,9.00
2019-05-10T12:13:25.394Z,6.75
2019-05-10T12:18:32.390Z,5.30
2019-05-10T12:23:33.449Z,5.40
2019-05-10T12:26:04.972Z,7.67
2019-05-10T12:28:36.452Z,6.62
2019-05-10T12:33:42.119Z,6.78
2019-05-10T12:38:43.804Z,5.10
2019-05-10T12:43:48.573Z,8.90
2019-05-10T12:48:51.651Z,11.08
2019-05-10T12:53:54.484Z,9.83
2019-05-10T12:58:59.457Z,11.80
2019-05-10T13:04:02.259Z,11.25
2019-05-10T13:09:06.204Z,11.48
2019-05-10T13:14:09.688Z,9.65
2019-05-10T13:19:14.349Z,12.05
2019-05-10T13:24:17.052Z,10.40
2019-05-10T13:29:19.804Z,11.10
2019-05-10T13:34:24.476Z,12.25
2019-05-10T13:39:27.677Z,12.25
2019-05-10T13:44:30.492Z,13.55
2019-05-10T13:49:33.148Z,12.63
2019-05-10T13:54:36.577Z,12.88
2019-05-10T13:59:40.214Z,11.48
2019-05-10T14:04:42.968Z,14.15
2019-05-10T14:09:45.778Z,12.47
2019-05-10T14:14:48.534Z,12.30
2019-05-10T14:19:51.688Z,11.65
2019-05-10T14:24:58.891Z,13.55
2019-05-10T14:29:58.821Z,13.35
2019-05-10T14:35:01.614Z,11.48
2019-05-10T14:40:06.015Z,10.60
2019-05-10T14:45:08.882Z,9.98
2019-05-10T14:50:11.777Z,10.13
2019-05-10T14:55:14.513Z,10.20
2019-05-10T15:00:17.653Z,11.33
2019-05-10T15:05:20.750Z,12.20
2019-05-10T15:10:23.445Z,10.55
2019-05-10T15:15:31.030Z,10.88
2019-05-10T15:20:30.593Z,10.25
2019-05-10T15:25:33.374Z,10.58
2019-05-10T15:30:39.136Z,11.40
2019-05-10T15:35:45.816Z,10.98
2019-05-10T15:40:45.974Z,10.35
2019-05-10T15:45:52.350Z,10.08
2019-05-10T15:50:53.266Z,10.38
2019-05-10T15:55:58.974Z,9.53
2019-05-10T16:01:00.397Z,9.70
2019-05-10T16:06:03.212Z,9.68
2019-05-10T16:11:18.170Z,9.45
2019-05-10T16:16:10.369Z,10.50
2019-05-10T16:21:15.160Z,10.40
2019-05-10T16:26:22.711Z,11.48
2019-05-10T16:31:21.873Z,11.83
2019-05-10T16:36:28.536Z,10.10
2019-05-10T16:41:29.117Z,9.38
2019-05-10T16:46:31.787Z,9.78
2019-05-10T16:51:34.512Z,9.20
2019-05-10T16:56:39.146Z,9.43
2019-05-10T17:01:41.821Z,8.38
2019-05-10T17:06:44.547Z,8.45
2019-05-10T17:11:48.610Z,9.35
2019-05-10T17:16:58.401Z,8.55
2019-05-10T17:21:56.151Z,8.98
2019-05-10T17:26:58.879Z,8.38
2019-05-10T17:32:01.537Z,8.73
2019-05-10T17:37:04.546Z,9.13
2019-05-10T17:42:07.576Z,8.40
2019-05-10T17:47:10.334Z,8.65
2019-05-10T17:52:13.062Z,8.20
2019-05-10T17:57:16.587Z,10.18
2019-05-10T18:02:20.111Z,8.55
2019-05-10T18:07:22.773Z,8.03
2019-05-10T18:12:27.156Z,8.70
2019-05-10T18:17:30.259Z,7.75
2019-05-10T18:22:41.810Z,9.90
2019-05-10T18:27:37.474Z,10.15
2019-05-10T18:32:40.184Z,8.85
2019-05-10T18:37:43.634Z,9.03
2019-05-10T18:42:47.841Z,8.45
2019-05-10T18:47:50.584Z,8.55
2019-05-10T18:52:53.280Z,7.45
2019-05-10T18:57:56.004Z,8.60
2019-05-10T19:02:58.679Z,9.50
2019-05-10T19:08:05.381Z,9.83
2019-05-10T19:13:06.427Z,9.25
2019-05-10T19:18:09.434Z,8.95
2019-05-10T19:23:13.270Z,8.95
2019-05-10T19:28:20.933Z,9.63
2019-05-10T19:33:21.008Z,9.00
2019-05-10T19:38:23.748Z,9.05
2019-05-10T19:43:26.406Z,9.28
2019-05-10T19:48:35.102Z,9.13
2019-05-10T19:53:36.487Z,8.58
2019-05-10T19:58:38.303Z,8.43
2019-05-10T20:03:41.042Z,8.85
2019-05-10T20:08:44.340Z,8.50
2019-05-10T20:13:48.900Z,9.38
2019-05-10T20:18:51.619Z,10.68
2019-05-10T20:23:54.451Z,9.98
2019-05-10T20:28:57.188Z,9.45
2019-05-10T20:33:59.957Z,9.15
2019-05-10T20:39:03.090Z,9.50
2019-05-10T20:44:05.763Z,12.58
2019-05-10T20:49:08.562Z,11.03
2019-05-10T20:54:11.289Z,11.95
2019-05-10T20:59:14.016Z,12.55
2019-05-10T21:04:16.980Z,11.83
2019-05-10T21:09:20.166Z,12.00
2019-05-10T21:14:22.910Z,10.05
2019-05-10T21:19:25.652Z,13.53
2019-05-10T21:24:28.325Z,15.03
2019-05-10T21:29:31.399Z,13.18
2019-05-10T21:34:34.130Z,11.75
2019-05-10T21:39:36.831Z,13.85
2019-05-10T21:44:39.480Z,13.75
2019-05-10T21:49:42.173Z,12.28
2019-05-10T21:54:44.822Z,15.83
2019-05-10T21:59:47.485Z,14.45
2019-05-10T22:04:50.286Z,13.95
2019-05-10T22:09:53.011Z,13.05
2019-05-10T22:14:55.678Z,15.13
2019-05-10T22:19:58.408Z,14.85
2019-05-10T22:25:01.068Z,15.18
2019-05-10T22:30:06.116Z,14.15
2019-05-10T22:35:09.109Z,16.40
2019-05-10T22:40:11.938Z,14.10
2019-05-10T22:45:14.772Z,15.32
2019-05-10T22:50:17.933Z,17.05
2019-05-10T22:55:21.023Z,15.58
2019-05-10T23:00:24.033Z,16.70
2019-05-10T23:05:26.699Z,15.35
2019-05-10T23:10:29.430Z,17.48
2019-05-10T23:15:32.108Z,15.80
2019-05-10T23:20:34.774Z,18.62
2019-05-10T23:25:37.728Z,17.95
2019-05-10T23:30:40.454Z,19.37
2019-05-10T23:35:43.126Z,17.02
2019-05-10T23:40:45.781Z,18.40
2019-05-10T23:45:48.535Z,16.65
2019-05-10T23:50:51.199Z,16.07
2019-05-10T23:55:53.855Z,16.70
